Time;durP1;ratioP1;P1;durP2;ratioP2;P2;SDS_P1;SDS_P2;PMS_P1;PMS_P2;Temp;Humidity;BMP_temperature;BMP_pressure;BME280_temperature;BME280_humidity;BME280_pressure;Samples;Min_cycle;Max_cycle;Signal;HPM_P1;HPM_P2
2022/01/11 00:00:12;;;;;;;52.33;23.90;;;;;;;;;;5073528;28;20542;-70
2022/01/11 00:02:59;;;;;;;57.37;24.00;;;;;;;;;;5073706;28;20211;-70
2022/01/11 00:08:29;;;;;;;55.37;23.60;;;;;;;;;;5069601;28;20273;-71
2022/01/11 00:11:03;;;;;;;49.40;24.50;;;;;;;;;;5074035;28;20249;-73
2022/01/11 00:13:34;;;;;;;48.23;22.87;;;;;;;;;;5073742;28;20226;-72
2022/01/11 00:16:02;;;;;;;54.67;23.80;;;;;;;;;;5072828;28;20200;-71
2022/01/11 00:18:30;;;;;;;49.10;24.10;;;;;;;;;;5073861;28;20203;-71
2022/01/11 00:20:57;;;;;;;53.40;24.90;;;;;;;;;;5074041;28;20564;-71
2022/01/11 00:25:56;;;;;;;49.37;23.27;;;;;;;;;;5073394;28;20712;-72
2022/01/11 00:28:25;;;;;;;49.23;23.90;;;;;;;;;;5073689;28;20234;-71
2022/01/11 00:31:09;;;;;;;47.00;22.47;;;;;;;;;;5072214;28;20207;-70
2022/01/11 00:33:41;;;;;;;47.83;22.50;;;;;;;;;;5073614;28;20240;-72
2022/01/11 00:36:11;;;;;;;50.13;24.53;;;;;;;;;;5072778;28;20574;-71
2022/01/11 00:38:40;;;;;;;51.57;24.47;;;;;;;;;;5072562;28;20219;-71
2022/01/11 00:41:11;;;;;;;52.40;24.27;;;;;;;;;;5073410;28;20583;-71
2022/01/11 00:43:40;;;;;;;51.63;23.90;;;;;;;;;;5072289;28;20606;-71
2022/01/11 00:46:07;;;;;;;47.40;22.83;;;;;;;;;;5073305;28;20672;-70
2022/01/11 00:48:39;;;;;;;50.07;23.03;;;;;;;;;;5073334;28;20274;-71
2022/01/11 00:51:09;;;;;;;46.80;22.90;;;;;;;;;;5072225;28;20681;-71
2022/01/11 00:53:39;;;;;;;52.20;23.70;;;;;;;;;;5072010;28;20557;-71
2022/01/11 00:56:08;;;;;;;53.07;23.93;;;;;;;;;;5072001;28;20622;-71
2022/01/11 00:58:35;;;;;;;49.63;24.83;;;;;;;;;;5072205;28;20215;-70
2022/01/11 01:01:03;;;;;;;51.40;24.77;;;;;;;;;;5073344;28;20222;-70
2022/01/11 01:03:30;;;;;;;57.03;25.60;;;;;;;;;;5073169;28;20666;-70
2022/01/11 01:05:59;;;;;;;61.50;27.60;;;;;;;;;;5073216;28;20685;-71
2022/01/11 01:08:28;;;;;;;58.60;25.53;;;;;;;;;;5072035;28;20235;-72
2022/01/11 01:10:56;;;;;;;56.53;26.60;;;;;;;;;;5072248;28;20262;-71
2022/01/11 01:13:28;;;;;;;58.07;25.63;;;;;;;;;;5072102;28;20227;-71
2022/01/11 01:16:03;;;;;;;58.07;26.80;;;;;;;;;;5071909;28;20202;-72
2022/01/11 01:18:48;;;;;;;61.43;26.23;;;;;;;;;;5070264;28;20281;-70
2022/01/11 01:21:17;;;;;;;60.67;27.37;;;;;;;;;;5065666;28;20215;-71
2022/01/11 01:23:45;;;;;;;61.33;26.83;;;;;;;;;;5062736;28;20211;-71
2022/01/11 01:26:14;;;;;;;62.50;26.17;;;;;;;;;;5073191;28;20218;-71
2022/01/11 01:28:41;;;;;;;61.23;26.67;;;;;;;;;;5073180;28;20669;-71
2022/01/11 01:31:08;;;;;;;59.27;25.93;;;;;;;;;;5073001;28;20216;-70
2022/01/11 01:33:36;;;;;;;58.63;25.90;;;;;;;;;;5072708;28;20260;-71
2022/01/11 01:36:09;;;;;;;59.57;26.40;;;;;;;;;;5075750;28;20207;-71
2022/01/11 01:38:38;;;;;;;55.50;25.60;;;;;;;;;;5077315;28;20210;-70
2022/01/11 01:41:13;;;;;;;57.37;27.13;;;;;;;;;;5077068;28;20215;-71
2022/01/11 01:43:42;;;;;;;58.47;28.73;;;;;;;;;;5076781;28;20253;-71
2022/01/11 01:46:10;;;;;;;60.73;28.33;;;;;;;;;;5075400;28;20215;-71
2022/01/11 01:48:37;;;;;;;61.90;28.80;;;;;;;;;;5075239;28;20281;-71
2022/01/11 01:51:07;;;;;;;59.27;27.20;;;;;;;;;;5076286;28;20211;-71
2022/01/11 01:53:37;;;;;;;63.60;27.13;;;;;;;;;;5075104;28;20211;-71
2022/01/11 01:56:06;;;;;;;60.43;26.83;;;;;;;;;;5075096;28;20728;-71
2022/01/11 01:58:33;;;;;;;61.77;26.60;;;;;;;;;;5058672;28;20215;-71
2022/01/11 02:01:04;;;;;;;52.10;24.63;;;;;;;;;;5074924;28;20276;-71
2022/01/11 02:03:39;;;;;;;54.50;24.80;;;;;;;;;;5076080;28;20564;-73
2022/01/11 02:06:15;;;;;;;52.60;25.80;;;;;;;;;;5076011;28;20638;-70
2022/01/11 02:08:47;;;;;;;51.90;25.43;;;;;;;;;;5075154;28;20309;-71
2022/01/11 02:11:17;;;;;;;58.53;24.47;;;;;;;;;;5074953;28;20239;-72
2022/01/11 02:13:48;;;;;;;59.57;27.87;;;;;;;;;;5058556;28;20254;-71
2022/01/11 02:16:21;;;;;;;55.97;26.80;;;;;;;;;;5074615;28;20711;-71
2022/01/11 02:18:52;;;;;;;58.63;27.17;;;;;;;;;;5074913;28;20204;-71
2022/01/11 02:21:22;;;;;;;56.53;26.83;;;;;;;;;;5074640;28;20222;-71
2022/01/11 02:23:52;;;;;;;57.37;26.63;;;;;;;;;;5074814;28;20239;-72
2022/01/11 02:26:23;;;;;;;58.43;26.47;;;;;;;;;;5074647;28;20291;-71
2022/01/11 02:28:51;;;;;;;60.13;26.63;;;;;;;;;;5074637;28;20246;-71
2022/01/11 02:31:19;;;;;;;58.30;24.93;;;;;;;;;;5058189;28;20218;-71
2022/01/11 02:33:57;;;;;;;53.07;24.27;;;;;;;;;;5074276;28;20195;-71
2022/01/11 02:36:32;;;;;;;58.27;26.00;;;;;;;;;;5075451;28;20195;-71
2022/01/11 02:39:14;;;;;;;56.47;24.73;;;;;;;;;;5075315;28;20199;-72
2022/01/11 02:41:51;;;;;;;58.27;25.37;;;;;;;;;;5074400;28;20260;-71
2022/01/11 02:44:23;;;;;;;57.33;25.73;;;;;;;;;;5058141;28;20522;-71
2022/01/11 02:46:50;;;;;;;55.17;26.57;;;;;;;;;;5073997;28;20733;-70
2022/01/11 02:49:20;;;;;;;63.37;27.37;;;;;;;;;;5074218;28;20625;-71
2022/01/11 02:51:53;;;;;;;56.47;26.17;;;;;;;;;;5074100;28;20203;-70
2022/01/11 02:54:22;;;;;;;55.37;25.80;;;;;;;;;;5073859;28;20309;-71
2022/01/11 02:56:55;;;;;;;62.93;27.93;;;;;;;;;;5073834;28;20195;-71
2022/01/11 02:59:22;;;;;;;55.50;26.47;;;;;;;;;;5073989;28;20270;-71
2022/01/11 03:01:49;;;;;;;59.00;25.63;;;;;;;;;;5073803;28;20215;-70
2022/01/11 03:04:21;;;;;;;49.83;24.67;;;;;;;;;;5074900;28;20203;-71
2022/01/11 03:06:48;;;;;;;59.30;25.97;;;;;;;;;;5073920;28;20217;-71
2022/01/11 03:09:18;;;;;;;56.53;26.00;;;;;;;;;;5073754;28;20230;-71
2022/01/11 03:11:47;;;;;;;55.53;25.77;;;;;;;;;;5073541;28;20597;-71
2022/01/11 03:14:14;;;;;;;53.27;25.63;;;;;;;;;;5057331;28;20215;-71
2022/01/11 03:16:42;;;;;;;51.97;25.90;;;;;;;;;;5073837;28;20207;-70
2022/01/11 03:19:09;;;;;;;61.20;26.50;;;;;;;;;;5073703;28;20215;-72
2022/01/11 03:21:36;;;;;;;54.30;26.20;;;;;;;;;;5056908;28;20688;-70
2022/01/11 03:24:04;;;;;;;53.77;25.83;;;;;;;;;;5073240;28;20215;-71
2022/01/11 03:26:31;;;;;;;57.50;25.93;;;;;;;;;;5073474;28;20203;-70
2022/01/11 03:28:59;;;;;;;49.47;24.33;;;;;;;;;;5073332;28;20702;-70
2022/01/11 03:31:27;;;;;;;48.90;25.20;;;;;;;;;;5073328;28;20293;-70
2022/01/11 03:33:55;;;;;;;54.80;25.57;;;;;;;;;;5073126;28;20666;-70
2022/01/11 03:36:22;;;;;;;54.60;25.80;;;;;;;;;;5073506;28;20272;-70
2022/01/11 03:38:50;;;;;;;61.90;25.80;;;;;;;;;;5073944;28;20211;-72
2022/01/11 03:41:17;;;;;;;55.70;24.57;;;;;;;;;;5073353;28;20222;-70
2022/01/11 03:43:45;;;;;;;59.40;26.20;;;;;;;;;;5073032;28;20222;-70
2022/01/11 03:46:17;;;;;;;50.33;25.23;;;;;;;;;;5072696;28;20704;-71
2022/01/11 03:48:45;;;;;;;55.67;26.37;;;;;;;;;;5072896;28;20296;-71
2022/01/11 03:51:13;;;;;;;51.47;23.70;;;;;;;;;;5073043;28;20207;-71
2022/01/11 03:54:04;;;;;;;53.57;25.10;;;;;;;;;;5073203;28;20196;-71
2022/01/11 03:56:35;;;;;;;51.60;23.80;;;;;;;;;;5072520;28;20290;-71
2022/01/11 03:59:09;;;;;;;56.97;25.87;;;;;;;;;;5072797;28;20677;-71
2022/01/11 04:01:37;;;;;;;58.87;26.00;;;;;;;;;;5072830;28;20207;-72
2022/01/11 04:04:06;;;;;;;51.93;24.97;;;;;;;;;;5072872;28;20204;-71
2022/01/11 04:06:35;;;;;;;49.17;24.43;;;;;;;;;;5072605;28;20215;-71
2022/01/11 04:09:04;;;;;;;50.93;24.50;;;;;;;;;;5072493;28;20246;-71
2022/01/11 04:11:33;;;;;;;47.50;23.20;;;;;;;;;;5072644;28;20243;-72
2022/01/11 04:14:01;;;;;;;54.10;25.83;;;;;;;;;;5072647;28;20238;-71
2022/01/11 04:16:28;;;;;;;52.23;23.63;;;;;;;;;;5072734;28;20245;-71
2022/01/11 04:18:58;;;;;;;56.80;24.77;;;;;;;;;;5073042;28;20199;-71
2022/01/11 04:21:28;;;;;;;59.90;25.73;;;;;;;;;;5072684;28;20207;-70
2022/01/11 04:23:57;;;;;;;54.00;24.73;;;;;;;;;;5072848;28;20210;-71
2022/01/11 04:26:26;;;;;;;52.87;25.17;;;;;;;;;;5072737;28;20238;-70
2022/01/11 04:28:56;;;;;;;50.23;24.83;;;;;;;;;;5072557;28;20706;-70
2022/01/11 04:31:24;;;;;;;54.60;25.10;;;;;;;;;;5072653;28;20246;-71
2022/01/11 04:33:51;;;;;;;52.77;24.87;;;;;;;;;;5073780;28;20214;-71
2022/01/11 04:36:19;;;;;;;52.40;23.30;;;;;;;;;;5072539;28;20211;-71
2022/01/11 04:38:46;;;;;;;52.03;25.50;;;;;;;;;;5073302;28;20730;-70
2022/01/11 04:41:15;;;;;;;49.60;24.87;;;;;;;;;;5072529;28;20294;-71
2022/01/11 04:43:47;;;;;;;48.97;24.60;;;;;;;;;;5056456;28;20639;-70
2022/01/11 04:46:18;;;;;;;49.83;23.97;;;;;;;;;;5072202;28;20215;-71
2022/01/11 04:48:52;;;;;;;54.07;23.40;;;;;;;;;;5072302;28;20584;-71
2022/01/11 04:51:20;;;;;;;48.10;24.87;;;;;;;;;;5055996;28;20211;-71
2022/01/11 04:53:49;;;;;;;51.93;25.23;;;;;;;;;;5072445;28;20208;-69
2022/01/11 04:56:18;;;;;;;47.70;23.97;;;;;;;;;;5072165;28;20670;-70
2022/01/11 04:58:46;;;;;;;52.17;25.50;;;;;;;;;;5071954;28;20221;-71
2022/01/11 05:01:14;;;;;;;51.60;24.80;;;;;;;;;;5071967;28;20211;-70
2022/01/11 05:03:43;;;;;;;47.50;24.83;;;;;;;;;;5036273;28;20239;-70
2022/01/11 05:06:11;;;;;;;53.67;26.83;;;;;;;;;;5034055;28;20231;-69
2022/01/11 05:08:39;;;;;;;48.10;23.50;;;;;;;;;;5026386;28;20319;-70
2022/01/11 05:11:10;;;;;;;48.57;23.73;;;;;;;;;;5069060;28;20301;-69
2022/01/11 05:13:41;;;;;;;55.30;25.83;;;;;;;;;;5053939;28;20228;-70
2022/01/11 05:16:26;;;;;;;46.33;24.00;;;;;;;;;;5055436;28;20319;-69
2022/01/11 05:18:58;;;;;;;44.57;22.60;;;;;;;;;;5065715;28;20578;-71
2022/01/11 05:21:26;;;;;;;53.10;25.53;;;;;;;;;;5072770;28;20238;-71
2022/01/11 05:23:53;;;;;;;53.10;25.07;;;;;;;;;;5075212;28;20231;-69
2022/01/11 05:26:20;;;;;;;51.63;25.43;;;;;;;;;;5072590;28;20232;-69
2022/01/11 05:28:47;;;;;;;44.90;22.77;;;;;;;;;;5054949;28;20254;-71
2022/01/11 05:31:15;;;;;;;50.33;23.23;;;;;;;;;;5054999;28;20243;-69
2022/01/11 05:33:42;;;;;;;49.23;24.13;;;;;;;;;;5037857;28;20267;-71
2022/01/11 05:36:09;;;;;;;45.50;22.83;;;;;;;;;;5056226;28;20240;-70
2022/01/11 05:38:37;;;;;;;47.83;23.10;;;;;;;;;;5067307;28;20721;-72
2022/01/11 05:41:04;;;;;;;46.27;23.13;;;;;;;;;;5075055;28;20238;-70
2022/01/11 05:43:32;;;;;;;42.83;22.57;;;;;;;;;;5074829;28;20234;-71
2022/01/11 05:45:59;;;;;;;54.57;25.33;;;;;;;;;;5062192;28;20293;-72
2022/01/11 05:48:26;;;;;;;45.97;19.57;;;;;;;;;;5026564;28;20267;-71
2022/01/11 05:50:54;;;;;;;56.67;26.50;;;;;;;;;;5044467;28;20749;-74
2022/01/11 05:53:22;;;;;;;48.30;23.33;;;;;;;;;;5054596;28;20784;-73
2022/01/11 05:55:50;;;;;;;47.17;24.33;;;;;;;;;;5055429;28;20239;-73
2022/01/11 05:58:18;;;;;;;47.60;21.70;;;;;;;;;;5054547;28;20244;-70
2022/01/11 06:00:45;;;;;;;30.43;13.93;;;;;;;;;;5043943;28;20254;-69
2022/01/11 06:03:15;;;;;;;54.93;28.13;;;;;;;;;;5043492;28;20263;-70
2022/01/11 06:05:47;;;;;;;39.87;21.67;;;;;;;;;;5034698;28;20707;-68
2022/01/11 06:08:17;;;;;;;57.00;25.80;;;;;;;;;;5044707;28;20232;-71
2022/01/11 06:10:49;;;;;;;29.67;13.57;;;;;;;;;;5042570;28;20672;-71
2022/01/11 06:13:19;;;;;;;62.50;30.57;;;;;;;;;;5047334;28;20231;-71
2022/01/11 06:16:08;;;;;;;61.07;30.67;;;;;;;;;;5040139;28;20215;-70
2022/01/11 06:18:38;;;;;;;35.37;15.53;;;;;;;;;;5028072;28;20205;-70
2022/01/11 06:21:16;;;;;;;57.27;28.83;;;;;;;;;;5027142;28;20697;-70
2022/01/11 06:23:46;;;;;;;65.03;28.87;;;;;;;;;;5046743;28;20668;-71
2022/01/11 06:26:16;;;;;;;65.50;30.27;;;;;;;;;;5043424;28;20612;-71
2022/01/11 06:29:00;;;;;;;46.80;22.17;;;;;;;;;;5068938;28;20273;-72
2022/01/11 06:31:34;;;;;;;55.03;25.10;;;;;;;;;;5028315;28;20212;-72
2022/01/11 06:34:03;;;;;;;64.10;31.00;;;;;;;;;;5007684;28;20197;-72
2022/01/11 06:36:31;;;;;;;59.77;27.60;;;;;;;;;;5036095;28;20212;-73
2022/01/11 06:38:59;;;;;;;65.20;33.53;;;;;;;;;;5034759;28;20215;-73
2022/01/11 06:41:30;;;;;;;71.23;32.30;;;;;;;;;;5036066;28;20544;-73
2022/01/11 06:44:00;;;;;;;71.77;34.37;;;;;;;;;;5034586;28;20533;-73
2022/01/11 06:46:29;;;;;;;67.23;30.97;;;;;;;;;;5018318;28;20204;-73
2022/01/11 06:49:01;;;;;;;84.07;37.63;;;;;;;;;;5034332;28;20225;-72
2022/01/11 06:51:28;;;;;;;58.97;27.33;;;;;;;;;;5034569;28;20296;-73
2022/01/11 06:53:56;;;;;;;68.30;32.77;;;;;;;;;;5034310;28;20213;-73
2022/01/11 06:56:24;;;;;;;78.57;34.13;;;;;;;;;;5033970;28;20224;-72
2022/01/11 06:58:58;;;;;;;79.07;37.20;;;;;;;;;;5034211;28;20197;-73
2022/01/11 07:01:26;;;;;;;61.93;29.43;;;;;;;;;;5034285;28;20307;-73
2022/01/11 07:03:59;;;;;;;80.90;36.20;;;;;;;;;;5034095;28;20201;-73
2022/01/11 07:06:29;;;;;;;77.43;36.50;;;;;;;;;;5034958;28;20216;-73
2022/01/11 07:08:57;;;;;;;80.53;33.73;;;;;;;;;;5033801;28;20233;-73
2022/01/11 07:11:29;;;;;;;67.97;32.87;;;;;;;;;;5017989;28;20240;-73
2022/01/11 07:17:23;;;;;;;54.00;24.13;;;;;;;;;;5034928;28;20287;-72
2022/01/11 07:19:52;;;;;;;70.60;32.60;;;;;;;;;;5033516;28;20535;-72
2022/01/11 07:22:20;;;;;;;68.47;29.70;;;;;;;;;;5033665;28;20217;-72
2022/01/11 07:24:49;;;;;;;77.83;32.47;;;;;;;;;;5001294;28;20213;-72
2022/01/11 07:27:18;;;;;;;95.53;39.03;;;;;;;;;;5033781;28;20197;-72
2022/01/11 07:29:46;;;;;;;82.30;34.17;;;;;;;;;;5033367;28;20282;-72
2022/01/11 07:32:14;;;;;;;70.90;30.00;;;;;;;;;;5032904;28;20213;-72
2022/01/11 07:34:43;;;;;;;55.00;23.37;;;;;;;;;;5033456;28;20291;-72
2022/01/11 07:37:10;;;;;;;63.17;29.20;;;;;;;;;;5034994;28;20253;-72
2022/01/11 07:39:41;;;;;;;64.80;26.40;;;;;;;;;;5036084;28;20658;-71
2022/01/11 07:42:09;;;;;;;81.47;33.87;;;;;;;;;;5017322;28;20266;-71
2022/01/11 07:44:54;;;;;;;62.73;25.43;;;;;;;;;;5033312;28;20224;-72
2022/01/11 07:47:22;;;;;;;82.87;36.60;;;;;;;;;;5033029;28;20555;-71
2022/01/11 07:49:51;;;;;;;76.87;32.90;;;;;;;;;;5017091;28;20657;-72
2022/01/11 07:52:19;;;;;;;63.67;29.10;;;;;;;;;;5033360;28;20217;-72
2022/01/11 07:54:47;;;;;;;35.97;15.53;;;;;;;;;;5033099;28;20672;-72
2022/01/11 07:57:17;;;;;;;81.40;35.03;;;;;;;;;;5032883;28;20228;-72
2022/01/11 07:59:44;;;;;;;45.53;20.23;;;;;;;;;;5033237;28;20282;-72
2022/01/11 08:02:26;;;;;;;39.37;18.33;;;;;;;;;;5033227;28;20255;-72
2022/01/11 08:04:55;;;;;;;63.87;28.20;;;;;;;;;;5032927;28;20215;-71
2022/01/11 08:07:22;;;;;;;82.13;34.67;;;;;;;;;;5032739;28;20303;-72
2022/01/11 08:10:11;;;;;;;58.80;24.13;;;;;;;;;;5033183;28;20224;-72
2022/01/11 08:12:39;;;;;;;69.73;32.70;;;;;;;;;;5032922;28;20322;-72
2022/01/11 08:15:07;;;;;;;63.57;28.77;;;;;;;;;;5033162;28;20212;-72
2022/01/11 08:17:35;;;;;;;55.47;24.00;;;;;;;;;;5033992;28;20280;-72
2022/01/11 08:20:03;;;;;;;53.03;23.27;;;;;;;;;;5032986;28;20208;-72
2022/01/11 08:22:30;;;;;;;54.10;27.50;;;;;;;;;;5033590;28;20239;-72
2022/01/11 08:24:57;;;;;;;50.77;23.87;;;;;;;;;;5032392;28;20213;-72
2022/01/11 08:27:26;;;;;;;62.47;29.03;;;;;;;;;;5032881;28;20565;-71
2022/01/11 08:29:54;;;;;;;50.93;23.20;;;;;;;;;;5032520;28;20259;-72
2022/01/11 08:32:21;;;;;;;34.57;15.70;;;;;;;;;;5032862;28;20214;-72
2022/01/11 08:34:49;;;;;;;35.13;17.20;;;;;;;;;;5032500;28;20221;-71
2022/01/11 08:37:17;;;;;;;47.47;20.07;;;;;;;;;;5033696;28;20216;-71
2022/01/11 08:39:46;;;;;;;57.17;25.43;;;;;;;;;;5016750;28;20220;-71
2022/01/11 08:42:14;;;;;;;54.23;24.10;;;;;;;;;;5032797;28;20223;-72
2022/01/11 08:44:46;;;;;;;47.20;20.30;;;;;;;;;;5038042;28;20217;-72
2022/01/11 08:47:17;;;;;;;58.50;27.87;;;;;;;;;;5036454;28;20230;-72
2022/01/11 08:49:47;;;;;;;47.33;24.03;;;;;;;;;;5036794;28;20279;-72
2022/01/11 08:52:15;;;;;;;40.27;20.27;;;;;;;;;;5020062;28;20726;-72
2022/01/11 08:54:43;;;;;;;51.33;24.80;;;;;;;;;;5036536;28;20243;-72
2022/01/11 08:57:11;;;;;;;49.10;25.50;;;;;;;;;;5020294;28;20235;-71
2022/01/11 08:59:38;;;;;;;48.77;25.33;;;;;;;;;;5036622;28;20565;-72
2022/01/11 09:02:08;;;;;;;49.47;23.97;;;;;;;;;;5037531;28;20217;-72
2022/01/11 09:04:38;;;;;;;51.37;25.87;;;;;;;;;;5036739;28;20212;-72
2022/01/11 09:07:19;;;;;;;42.97;20.07;;;;;;;;;;5021956;28;20291;-73
2022/01/11 09:09:48;;;;;;;46.50;22.13;;;;;;;;;;5036328;28;20251;-72
2022/01/11 09:12:18;;;;;;;47.87;24.70;;;;;;;;;;5036100;28;20252;-72
2022/01/11 09:14:48;;;;;;;51.97;24.90;;;;;;;;;;5037022;28;20670;-72
2022/01/11 09:17:18;;;;;;;48.47;23.20;;;;;;;;;;5035929;28;20293;-72
2022/01/11 09:19:46;;;;;;;50.67;22.43;;;;;;;;;;5036239;28;20209;-72
2022/01/11 09:22:18;;;;;;;47.27;22.97;;;;;;;;;;5036289;28;20197;-72
2022/01/11 09:24:46;;;;;;;38.20;20.67;;;;;;;;;;5036847;28;20209;-72
2022/01/11 09:27:16;;;;;;;30.40;13.10;;;;;;;;;;5019927;28;20201;-72
2022/01/11 09:29:45;;;;;;;44.30;21.33;;;;;;;;;;5035466;28;20749;-72
2022/01/11 09:32:15;;;;;;;47.77;22.87;;;;;;;;;;5035731;28;20213;-72
2022/01/11 09:34:44;;;;;;;43.03;19.50;;;;;;;;;;5035990;28;20219;-72
2022/01/11 09:37:19;;;;;;;43.77;21.77;;;;;;;;;;5037992;28;20192;-72
2022/01/11 09:39:48;;;;;;;43.63;22.97;;;;;;;;;;5036695;28;20219;-72
2022/01/11 09:42:19;;;;;;;32.87;15.27;;;;;;;;;;5052412;28;20212;-72
2022/01/11 09:44:48;;;;;;;42.97;20.27;;;;;;;;;;5035395;28;20672;-71
2022/01/11 09:47:16;;;;;;;47.80;21.87;;;;;;;;;;5052247;28;20699;-72
2022/01/11 09:49:47;;;;;;;42.47;21.17;;;;;;;;;;5035683;28;20308;-72
2022/01/11 09:52:18;;;;;;;34.97;17.50;;;;;;;;;;5035679;28;20291;-72
2022/01/11 09:54:47;;;;;;;37.57;19.03;;;;;;;;;;5018592;28;20197;-71
2022/01/11 09:57:18;;;;;;;37.93;18.60;;;;;;;;;;5051996;28;20251;-71
2022/01/11 09:59:47;;;;;;;41.37;19.10;;;;;;;;;;5036340;28;20232;-71
2022/01/11 10:02:29;;;;;;;33.00;17.73;;;;;;;;;;5035597;28;20204;-71
2022/01/11 10:05:13;;;;;;;35.70;18.87;;;;;;;;;;5035393;28;20201;-71
2022/01/11 10:07:54;;;;;;;35.53;19.37;;;;;;;;;;5036068;28;20626;-71
2022/01/11 10:10:24;;;;;;;34.63;17.37;;;;;;;;;;5018579;28;20260;-71
2022/01/11 10:13:03;;;;;;;39.93;18.67;;;;;;;;;;5034914;28;20236;-72
2022/01/11 10:15:35;;;;;;;31.47;15.83;;;;;;;;;;5035071;28;20258;-72
2022/01/11 10:18:34;;;;;;;37.37;15.67;;;;;;;;;;5021023;28;20201;-71
2022/01/11 10:21:23;;;;;;;33.07;17.43;;;;;;;;;;5034619;28;20208;-71
2022/01/11 10:23:51;;;;;;;34.33;18.10;;;;;;;;;;5034708;28;20201;-72
2022/01/11 10:26:44;;;;;;;23.20;10.57;;;;;;;;;;5034754;28;20213;-72
2022/01/11 10:29:28;;;;;;;30.43;18.37;;;;;;;;;;5034900;28;20275;-72
2022/01/11 10:32:01;;;;;;;31.07;17.37;;;;;;;;;;5034919;28;20263;-71
2022/01/11 10:34:34;;;;;;;22.47;10.63;;;;;;;;;;5034704;28;20201;-72
2022/01/11 10:37:04;;;;;;;27.37;10.63;;;;;;;;;;5034868;28;20212;-72
2022/01/11 10:39:38;;;;;;;33.83;16.43;;;;;;;;;;5034583;28;20586;-72
2022/01/11 10:42:25;;;;;;;27.13;12.70;;;;;;;;;;5034600;28;20204;-71
2022/01/11 10:44:55;;;;;;;33.47;15.67;;;;;;;;;;5018214;28;20243;-71
2022/01/11 10:47:30;;;;;;;31.07;15.40;;;;;;;;;;5034236;28;20675;-73
2022/01/11 10:50:14;;;;;;;35.00;17.87;;;;;;;;;;5018141;28;20240;-73
2022/01/11 10:52:43;;;;;;;33.37;17.10;;;;;;;;;;5034122;28;20199;-72
2022/01/11 10:55:19;;;;;;;28.83;15.50;;;;;;;;;;5050839;28;20213;-72
2022/01/11 10:57:53;;;;;;;31.37;16.33;;;;;;;;;;5034528;28;20193;-73
2022/01/11 11:00:31;;;;;;;33.07;16.67;;;;;;;;;;5034288;28;20200;-72
2022/01/11 11:03:01;;;;;;;31.50;16.70;;;;;;;;;;5034069;28;20200;-72
2022/01/11 11:05:34;;;;;;;33.63;15.83;;;;;;;;;;5034184;28;20209;-72
2022/01/11 11:08:23;;;;;;;26.07;12.90;;;;;;;;;;5033519;28;20319;-72
2022/01/11 11:11:07;;;;;;;28.27;15.20;;;;;;;;;;5033549;28;20240;-72
2022/01/11 11:13:45;;;;;;;31.87;15.47;;;;;;;;;;5017881;28;20551;-71
2022/01/11 11:16:17;;;;;;;32.37;15.63;;;;;;;;;;5033855;28;20200;-72
2022/01/11 11:18:53;;;;;;;25.80;10.60;;;;;;;;;;5033944;28;20200;-72
2022/01/11 11:21:38;;;;;;;30.00;15.93;;;;;;;;;;5033967;28;20212;-73
2022/01/11 11:24:08;;;;;;;26.03;13.07;;;;;;;;;;5034009;28;20227;-72
2022/01/11 11:26:38;;;;;;;29.43;13.40;;;;;;;;;;5033921;28;20201;-72
2022/01/11 11:29:07;;;;;;;29.57;16.03;;;;;;;;;;5035351;28;20262;-72
2022/01/11 11:31:54;;;;;;;27.10;13.57;;;;;;;;;;5034818;28;20189;-72
2022/01/11 11:34:28;;;;;;;23.57;12.03;;;;;;;;;;5033870;28;20197;-72
2022/01/11 11:36:57;;;;;;;24.10;11.67;;;;;;;;;;5037316;28;20220;-72
2022/01/11 11:39:24;;;;;;;20.57;10.50;;;;;;;;;;5034188;28;20757;-73
2022/01/11 11:41:59;;;;;;;24.97;12.83;;;;;;;;;;5033709;28;20205;-72
2022/01/11 11:44:30;;;;;;;27.77;14.67;;;;;;;;;;5033251;28;20201;-73
2022/01/11 11:47:00;;;;;;;25.30;13.97;;;;;;;;;;5016929;28;20327;-72
2022/01/11 11:49:43;;;;;;;26.67;13.43;;;;;;;;;;5034334;28;20675;-73
2022/01/11 11:52:26;;;;;;;22.57;12.07;;;;;;;;;;5034259;28;20197;-73
2022/01/11 11:55:06;;;;;;;26.67;14.13;;;;;;;;;;5034674;28;20205;-73
2022/01/11 11:57:37;;;;;;;23.57;12.40;;;;;;;;;;5033040;28;20201;-73
2022/01/11 12:00:07;;;;;;;18.47;9.70;;;;;;;;;;5033189;28;20284;-73
2022/01/11 12:02:41;;;;;;;29.93;13.50;;;;;;;;;;5034561;28;20203;-73
2022/01/11 12:05:28;;;;;;;25.63;13.57;;;;;;;;;;5033151;28;20311;-73
2022/01/11 12:07:57;;;;;;;37.70;12.77;;;;;;;;;;5033992;28;20200;-72
2022/01/11 12:10:48;;;;;;;16.80;9.03;;;;;;;;;;5033886;28;20243;-72
2022/01/11 12:13:49;;;;;;;18.20;10.87;;;;;;;;;;5034234;28;20208;-72
2022/01/11 12:16:24;;;;;;;20.10;10.33;;;;;;;;;;5033961;28;20223;-71
2022/01/11 12:18:56;;;;;;;17.67;9.57;;;;;;;;;;5033951;28;20200;-73
2022/01/11 12:21:25;;;;;;;21.37;11.23;;;;;;;;;;5034213;28;20566;-72
2022/01/11 12:23:58;;;;;;;22.23;10.67;;;;;;;;;;5033855;28;20239;-71
2022/01/11 12:26:27;;;;;;;21.00;9.00;;;;;;;;;;5033976;28;20264;-70
2022/01/11 12:29:12;;;;;;;22.73;10.57;;;;;;;;;;5034634;28;20557;-72
2022/01/11 12:31:52;;;;;;;18.63;8.90;;;;;;;;;;5033682;28;20232;-71
2022/01/11 12:34:45;;;;;;;17.60;9.73;;;;;;;;;;5032865;28;20200;-72
2022/01/11 12:37:28;;;;;;;16.73;7.73;;;;;;;;;;5033997;28;20209;-72
2022/01/11 12:40:13;;;;;;;17.10;9.23;;;;;;;;;;5032853;28;20193;-72
2022/01/11 12:43:00;;;;;;;14.23;6.87;;;;;;;;;;5033985;28;20284;-73
2022/01/11 12:45:58;;;;;;;14.00;8.30;;;;;;;;;;5034021;28;20213;-73
2022/01/11 12:48:42;;;;;;;14.47;8.17;;;;;;;;;;5034069;28;20218;-73
2022/01/11 12:51:31;;;;;;;12.63;7.20;;;;;;;;;;5033435;28;20224;-73
2022/01/11 12:54:29;;;;;;;11.43;6.43;;;;;;;;;;5033610;28;20308;-73
2022/01/11 12:57:09;;;;;;;11.93;5.50;;;;;;;;;;5018429;28;20216;-73
2022/01/11 12:59:38;;;;;;;23.90;9.70;;;;;;;;;;5032422;28;20201;-74
2022/01/11 13:02:13;;;;;;;30.83;13.20;;;;;;;;;;5033735;28;20291;-73
2022/01/11 13:04:45;;;;;;;34.73;14.47;;;;;;;;;;5033970;28;20262;-73
2022/01/11 13:07:28;;;;;;;29.73;9.27;;;;;;;;;;5033230;28;20212;-73
2022/01/11 13:10:06;;;;;;;13.97;8.10;;;;;;;;;;5032316;28;20546;-73
2022/01/11 13:12:55;;;;;;;18.20;9.57;;;;;;;;;;5032239;28;20244;-72
2022/01/11 13:15:32;;;;;;;15.17;7.47;;;;;;;;;;5033242;28;20525;-72
2022/01/11 13:18:12;;;;;;;17.03;7.37;;;;;;;;;;5032533;28;20201;-72
2022/01/11 13:21:08;;;;;;;12.33;6.43;;;;;;;;;;5033468;28;20224;-71
2022/01/11 13:23:45;;;;;;;12.97;6.23;;;;;;;;;;5033649;28;20208;-72
2022/01/11 13:26:14;;;;;;;20.87;9.63;;;;;;;;;;5033324;28;20602;-73
2022/01/11 13:28:48;;;;;;;17.90;9.00;;;;;;;;;;5033584;28;20223;-73
2022/01/11 13:31:18;;;;;;;16.93;8.60;;;;;;;;;;5035455;28;20231;-71
2022/01/11 13:33:55;;;;;;;17.60;8.73;;;;;;;;;;5037173;28;20537;-72
2022/01/11 13:36:27;;;;;;;14.97;6.83;;;;;;;;;;5038729;28;20220;-72
2022/01/11 13:38:57;;;;;;;14.80;8.00;;;;;;;;;;5037728;28;20229;-74
2022/01/11 13:41:33;;;;;;;13.10;6.43;;;;;;;;;;5046586;28;20610;-72
2022/01/11 13:44:08;;;;;;;11.37;6.10;;;;;;;;;;5035076;28;20236;-73
2022/01/11 13:46:44;;;;;;;11.47;7.03;;;;;;;;;;5046747;28;20238;-72
2022/01/11 13:49:20;;;;;;;12.13;6.90;;;;;;;;;;5043163;28;20235;-71
2022/01/11 13:51:53;;;;;;;11.53;6.73;;;;;;;;;;5054208;28;20285;-72
2022/01/11 13:54:22;;;;;;;12.97;5.63;;;;;;;;;;5054503;28;20342;-72
2022/01/11 13:56:50;;;;;;;15.47;7.13;;;;;;;;;;5036113;28;20240;-71
2022/01/11 13:59:26;;;;;;;14.50;7.43;;;;;;;;;;5018314;28;20639;-72
2022/01/11 14:02:24;;;;;;;13.23;7.03;;;;;;;;;;5035216;28;20286;-72
2022/01/11 14:04:58;;;;;;;7.77;4.03;;;;;;;;;;5033171;28;20314;-73
2022/01/11 14:07:29;;;;;;;8.93;5.37;;;;;;;;;;5035064;28;20236;-72
2022/01/11 14:10:06;;;;;;;25.73;11.77;;;;;;;;;;5043193;28;20247;-71
2022/01/11 14:12:46;;;;;;;22.07;10.87;;;;;;;;;;5045813;28;20268;-71
2022/01/11 14:15:25;;;;;;;18.43;9.80;;;;;;;;;;5040295;28;20333;-74
2022/01/11 14:17:56;;;;;;;21.63;9.80;;;;;;;;;;5040114;28;20289;-72
2022/01/11 14:20:30;;;;;;;22.07;10.53;;;;;;;;;;5026689;28;20247;-71
2022/01/11 14:23:00;;;;;;;17.87;8.20;;;;;;;;;;5046796;28;20232;-69
2022/01/11 14:25:38;;;;;;;23.83;12.07;;;;;;;;;;5053217;28;20625;-71
2022/01/11 14:28:11;;;;;;;21.43;10.80;;;;;;;;;;5053250;28;20315;-72
2022/01/11 14:31:01;;;;;;;24.77;11.83;;;;;;;;;;5052787;28;20251;-72
2022/01/11 14:33:34;;;;;;;28.60;11.63;;;;;;;;;;5053733;28;20707;-72
2022/01/11 14:36:01;;;;;;;28.23;11.60;;;;;;;;;;5053940;28;20231;-71
2022/01/11 14:38:39;;;;;;;46.23;17.17;;;;;;;;;;5049943;28;20228;-72
2022/01/11 14:41:11;;;;;;;40.77;16.63;;;;;;;;;;5034293;28;20260;-69
2022/01/11 14:44:03;;;;;;;28.70;13.00;;;;;;;;;;5049987;28;20227;-70
2022/01/11 14:46:51;;;;;;;37.23;15.20;;;;;;;;;;5047791;28;20315;-72
2022/01/11 14:49:23;;;;;;;40.73;14.90;;;;;;;;;;5044783;28;20710;-72
2022/01/11 14:51:54;;;;;;;24.10;12.17;;;;;;;;;;5045415;28;20243;-69
2022/01/11 14:54:25;;;;;;;17.73;10.00;;;;;;;;;;5042113;28;20240;-71
2022/01/11 14:56:57;;;;;;;21.50;10.47;;;;;;;;;;5047855;28;20267;-72